createdAt,value
2022-09-03T00:00:03.520Z,8.00
2022-09-03T00:02:39.260Z,8.00
2022-09-03T00:05:26.033Z,7.50
2022-09-03T00:08:10.598Z,8.50
2022-09-03T00:10:55.355Z,6.80
2022-09-03T00:13:29.487Z,8.60
2022-09-03T00:15:56.563Z,7.10
2022-09-03T00:18:25.439Z,6.60
2022-09-03T00:21:08.297Z,6.20
2022-09-03T00:23:37.346Z,6.50
2022-09-03T00:26:13.225Z,8.50
2022-09-03T00:28:49.362Z,6.90
2022-09-03T00:31:29.611Z,7.90
2022-09-03T00:34:00.146Z,6.70
2022-09-03T00:36:37.773Z,7.10
2022-09-03T00:39:12.842Z,7.40
2022-09-03T00:42:31.979Z,6.10
2022-09-03T00:45:20.252Z,4.80
2022-09-03T00:47:49.223Z,4.70
2022-09-03T00:50:34.740Z,7.60
2022-09-03T00:53:32.046Z,5.90
2022-09-03T00:56:32.598Z,5.50
2022-09-03T00:59:22.240Z,8.10
2022-09-03T01:01:51.373Z,8.90
2022-09-03T01:04:43.062Z,7.50
2022-09-03T01:07:25.082Z,6.20
2022-09-03T01:10:32.373Z,7.80
2022-09-03T01:13:04.459Z,5.70
2022-09-03T01:16:03.398Z,7.60
2022-09-03T01:18:52.295Z,7.00
2022-09-03T01:21:22.005Z,4.90
2022-09-03T01:23:53.136Z,8.60
2022-09-03T01:26:28.390Z,6.20
2022-09-03T01:29:18.567Z,4.80
2022-09-03T01:32:09.906Z,5.70
2022-09-03T01:34:58.157Z,8.60
2022-09-03T01:37:29.071Z,3.90
2022-09-03T01:40:20.717Z,6.70
2022-09-03T01:43:03.477Z,6.80
2022-09-03T01:45:33.192Z,6.00
2022-09-03T01:48:06.203Z,6.80
2022-09-03T01:50:57.920Z,6.40
2022-09-03T01:53:39.151Z,4.60
2022-09-03T01:56:17.396Z,6.50
2022-09-03T01:58:49.595Z,9.90
2022-09-03T02:01:23.897Z,4.20
2022-09-03T02:03:50.880Z,5.00
2022-09-03T02:06:20.781Z,5.40
2022-09-03T02:08:47.631Z,6.50
2022-09-03T02:11:14.494Z,7.00
2022-09-03T02:14:52.785Z,7.00
2022-09-03T02:17:19.390Z,9.50
2022-09-03T02:19:46.376Z,6.40
2022-09-03T02:24:39.448Z,6.20
2022-09-03T02:27:06.278Z,6.90
2022-09-03T02:29:33.980Z,5.80
2022-09-03T02:34:27.214Z,5.70
2022-09-03T02:36:53.960Z,7.90
2022-09-03T02:39:21.425Z,7.00
2022-09-03T02:44:41.490Z,9.00
2022-09-03T02:47:08.260Z,6.50
2022-09-03T02:49:35.087Z,6.20
2022-09-03T02:52:08.693Z,9.70
2022-09-03T02:54:39.048Z,6.80
2022-09-03T02:57:09.394Z,5.60
2022-09-03T02:59:36.480Z,8.40
2022-09-03T03:02:03.476Z,5.20
2022-09-03T03:04:31.500Z,4.50
2022-09-03T03:09:25.054Z,8.00
2022-09-03T03:11:53.037Z,4.90
2022-09-03T03:14:19.773Z,5.80
2022-09-03T03:19:12.838Z,9.30
2022-09-03T03:21:39.571Z,7.50
2022-09-03T03:24:06.615Z,8.10
2022-09-03T03:26:33.853Z,5.90
2022-09-03T03:31:27.136Z,5.40
2022-09-03T03:36:21.341Z,8.30
2022-09-03T03:38:48.141Z,8.70
2022-09-03T03:41:19.934Z,7.80
2022-09-03T03:43:46.698Z,7.90
2022-09-03T03:46:14.409Z,10.60
2022-09-03T03:48:41.004Z,9.00
2022-09-03T03:51:08.596Z,8.10
2022-09-03T03:53:39.007Z,6.20
2022-09-03T03:56:07.296Z,5.90
2022-09-03T03:58:34.117Z,8.70
2022-09-03T04:01:08.658Z,9.00
2022-09-03T04:03:35.595Z,11.00
2022-09-03T04:06:04.009Z,7.30
2022-09-03T04:08:30.790Z,7.70
2022-09-03T04:11:01.078Z,6.90
2022-09-03T04:13:30.298Z,10.30
2022-09-03T04:16:04.007Z,7.70
2022-09-03T04:18:31.159Z,9.80
2022-09-03T04:21:03.554Z,8.30
2022-09-03T04:23:38.051Z,10.90
2022-09-03T04:26:05.409Z,9.20
2022-09-03T04:28:32.524Z,14.80
2022-09-03T04:33:30.760Z,9.60
2022-09-03T04:36:17.928Z,10.90
2022-09-03T04:38:46.170Z,10.80
2022-09-03T04:41:17.472Z,10.70
2022-09-03T04:43:44.101Z,7.40
2022-09-03T04:46:17.743Z,7.90
2022-09-03T04:48:47.439Z,11.20
2022-09-03T04:51:16.124Z,9.30
2022-09-03T04:53:48.359Z,11.50
2022-09-03T04:56:16.905Z,11.30
2022-09-03T04:58:44.193Z,9.30
2022-09-03T05:01:16.370Z,7.30
2022-09-03T05:03:43.537Z,9.50
2022-09-03T05:06:10.206Z,8.50
2022-09-03T05:08:39.609Z,8.80
2022-09-03T05:11:06.895Z,8.90
2022-09-03T05:13:33.978Z,8.30
2022-09-03T05:16:03.640Z,13.30
2022-09-03T05:18:31.335Z,6.60
2022-09-03T05:21:02.068Z,6.20
2022-09-03T05:23:34.299Z,7.40
2022-09-03T05:26:08.466Z,5.90
2022-09-03T05:28:39.395Z,6.60
2022-09-03T05:31:16.962Z,9.60
2022-09-03T05:33:45.278Z,5.80
2022-09-03T05:36:16.299Z,14.80
2022-09-03T05:38:43.204Z,7.80
2022-09-03T05:43:37.044Z,10.50
2022-09-03T05:48:34.524Z,11.50
2022-09-03T05:51:15.692Z,7.90
2022-09-03T05:53:43.718Z,7.50
2022-09-03T05:56:11.816Z,7.60
2022-09-03T05:58:40.199Z,8.90
2022-09-03T06:01:13.758Z,9.70
2022-09-03T06:03:41.181Z,10.00
2022-09-03T06:06:08.485Z,14.20
2022-09-03T06:08:37.100Z,9.10
2022-09-03T06:11:03.867Z,8.00
2022-09-03T06:13:30.976Z,10.40
2022-09-03T06:16:01.219Z,9.60
2022-09-03T06:18:28.556Z,10.70
2022-09-03T06:20:55.594Z,13.70
2022-09-03T06:23:23.059Z,10.70
2022-09-03T06:26:20.270Z,11.60
2022-09-03T06:28:47.930Z,12.40
2022-09-03T06:31:16.572Z,13.30
2022-09-03T06:33:43.336Z,11.40
2022-09-03T06:36:12.733Z,10.30
2022-09-03T06:38:39.508Z,10.40
2022-09-03T06:41:11.113Z,12.70
2022-09-03T06:43:39.428Z,8.80
2022-09-03T06:46:13.280Z,10.40
2022-09-03T06:48:42.919Z,9.30
2022-09-03T06:51:16.927Z,10.20
2022-09-03T06:53:45.663Z,10.20
2022-09-03T06:56:13.797Z,13.20
2022-09-03T06:58:42.930Z,11.70
2022-09-03T07:01:14.085Z,18.30
2022-09-03T07:03:41.862Z,10.00
2022-09-03T07:06:10.078Z,7.60
2022-09-03T07:08:37.120Z,12.00
2022-09-03T07:11:08.535Z,12.00
2022-09-03T07:13:41.126Z,6.70
2022-09-03T07:16:09.390Z,11.80
2022-09-03T07:18:36.105Z,9.70
2022-09-03T07:21:10.206Z,13.60
2022-09-03T07:23:36.997Z,7.10
2022-09-03T07:26:05.555Z,9.40
2022-09-03T07:28:32.168Z,7.50
2022-09-03T07:31:19.672Z,8.40
2022-09-03T07:33:46.567Z,17.30
2022-09-03T07:36:16.618Z,11.10
2022-09-03T07:38:44.130Z,10.40
2022-09-03T07:41:11.866Z,10.10
2022-09-03T07:43:47.874Z,9.90
2022-09-03T07:46:23.894Z,7.50
2022-09-03T07:48:51.963Z,6.80
2022-09-03T07:51:19.831Z,8.00
2022-09-03T07:53:46.882Z,10.50
2022-09-03T07:56:13.512Z,7.50
2022-09-03T07:58:41.563Z,11.30
2022-09-03T08:01:12.316Z,8.40
2022-09-03T08:03:43.258Z,8.70
2022-09-03T08:06:10.078Z,8.70
2022-09-03T08:11:04.608Z,12.50
2022-09-03T08:13:32.397Z,7.60
2022-09-03T08:16:00.741Z,9.50
2022-09-03T08:18:31.331Z,8.10
2022-09-03T08:20:59.301Z,6.00
2022-09-03T08:23:25.897Z,5.70
2022-09-03T08:26:02.351Z,6.90
2022-09-03T08:28:29.595Z,5.10
2022-09-03T08:30:56.436Z,5.90
2022-09-03T08:33:36.518Z,5.90
2022-09-03T08:36:29.313Z,6.90
2022-09-03T08:38:56.775Z,7.90
2022-09-03T08:41:51.221Z,10.80
2022-09-03T08:44:36.476Z,13.20
2022-09-03T08:47:16.890Z,7.50
2022-09-03T08:49:47.998Z,13.20
2022-09-03T08:52:33.328Z,8.70
2022-09-03T08:55:12.010Z,8.20
2022-09-03T08:57:46.484Z,7.70
2022-09-03T09:00:13.258Z,6.40
2022-09-03T09:02:48.357Z,5.90
2022-09-03T09:05:30.140Z,3.90
2022-09-03T09:08:13.416Z,6.10
2022-09-03T09:10:45.344Z,4.60
2022-09-03T09:13:31.722Z,7.10
2022-09-03T09:16:04.210Z,6.60
2022-09-03T09:18:40.883Z,3.60
2022-09-03T09:21:27.558Z,4.50
2022-09-03T09:23:54.320Z,6.80
2022-09-03T09:26:21.528Z,5.50
2022-09-03T09:28:57.405Z,16.20
2022-09-03T09:31:24.199Z,4.60
2022-09-03T09:33:51.828Z,5.80
2022-09-03T09:36:18.997Z,4.20
2022-09-03T09:38:47.900Z,4.00
2022-09-03T09:41:19.496Z,4.50
2022-09-03T09:43:49.823Z,4.20
2022-09-03T09:46:20.905Z,6.00
2022-09-03T09:48:54.698Z,6.80
2022-09-03T09:51:30.402Z,4.90
2022-09-03T09:54:00.874Z,6.80
2022-09-03T09:56:27.494Z,12.70
2022-09-03T09:59:04.071Z,7.60
2022-09-03T10:01:32.058Z,8.30
2022-09-03T10:03:59.888Z,8.30
2022-09-03T10:06:49.263Z,5.30
2022-09-03T10:09:17.607Z,6.80
2022-09-03T10:11:50.202Z,5.90
2022-09-03T10:14:24.519Z,9.40
2022-09-03T10:16:55.642Z,11.80
2022-09-03T10:19:24.813Z,5.10
2022-09-03T10:21:58.887Z,6.40
2022-09-03T10:24:46.765Z,4.80
2022-09-03T10:27:13.809Z,6.70
2022-09-03T10:29:40.536Z,7.50
2022-09-03T10:32:22.417Z,4.80
2022-09-03T10:34:55.279Z,6.90
2022-09-03T10:37:33.095Z,6.50
2022-09-03T10:40:28.067Z,4.00
2022-09-03T10:43:04.277Z,14.10
2022-09-03T10:45:52.027Z,5.00
2022-09-03T10:51:17.219Z,9.60
2022-09-03T10:54:06.610Z,6.80
2022-09-03T10:56:46.623Z,6.30
2022-09-03T10:59:35.395Z,4.90
2022-09-03T11:02:16.910Z,7.70
2022-09-03T11:04:48.684Z,5.70
2022-09-03T11:07:17.307Z,16.60
2022-09-03T11:10:15.431Z,8.40
2022-09-03T11:12:47.086Z,9.30
2022-09-03T11:15:25.190Z,4.10
2022-09-03T11:17:57.667Z,5.00
2022-09-03T11:20:25.022Z,10.70
2022-09-03T11:22:56.907Z,5.90
2022-09-03T11:25:35.105Z,10.20
2022-09-03T11:28:27.031Z,5.50
2022-09-03T11:31:13.105Z,4.50
2022-09-03T11:33:43.643Z,4.90
2022-09-03T11:36:11.102Z,6.00
2022-09-03T11:38:38.849Z,13.50
2022-09-03T11:41:26.453Z,36.80
2022-09-03T11:46:20.874Z,5.90
2022-09-03T11:48:51.572Z,9.20
2022-09-03T11:51:41.210Z,9.90
2022-09-03T11:54:13.886Z,5.80
2022-09-03T11:56:41.154Z,10.80
2022-09-03T11:59:14.232Z,10.90
2022-09-03T12:01:46.151Z,8.60
2022-09-03T12:04:16.282Z,8.30
2022-09-03T12:06:58.639Z,5.90
2022-09-03T12:10:02.162Z,8.10
2022-09-03T12:12:47.524Z,7.10
2022-09-03T12:15:22.531Z,10.70
2022-09-03T12:18:19.881Z,7.20
2022-09-03T12:20:54.962Z,9.40
2022-09-03T12:23:27.580Z,7.70
2022-09-03T12:25:54.187Z,7.10
2022-09-03T12:28:24.714Z,4.80
2022-09-03T12:30:52.949Z,7.80
2022-09-03T12:33:22.649Z,6.20
2022-09-03T12:36:00.128Z,7.80
2022-09-03T12:38:28.786Z,8.50
2022-09-03T12:43:50.637Z,4.70
2022-09-03T12:46:17.823Z,5.00
2022-09-03T12:51:54.365Z,8.00
2022-09-03T12:54:22.816Z,7.60
2022-09-03T12:59:26.871Z,5.60
2022-09-03T13:01:55.616Z,8.20
2022-09-03T13:04:27.314Z,5.30
2022-09-03T13:07:03.507Z,10.20
2022-09-03T13:09:30.635Z,7.10
2022-09-03T13:11:58.531Z,7.30
2022-09-03T13:14:26.074Z,5.70
2022-09-03T13:17:51.747Z,8.10
2022-09-03T13:20:36.775Z,7.20
2022-09-03T13:23:39.310Z,6.30
2022-09-03T13:26:23.749Z,5.70
2022-09-03T13:29:08.569Z,9.10
2022-09-03T13:31:38.276Z,8.70
2022-09-03T13:34:27.344Z,14.90
2022-09-03T13:36:57.653Z,10.10
2022-09-03T13:39:34.689Z,6.80
2022-09-03T13:45:05.927Z,8.30
2022-09-03T13:48:14.287Z,6.10
2022-09-03T13:50:43.711Z,9.20
2022-09-03T13:53:25.025Z,5.50
2022-09-03T13:55:55.138Z,7.30
2022-09-03T13:58:33.443Z,8.00
2022-09-03T14:01:40.499Z,9.00
2022-09-03T14:04:14.424Z,9.50
2022-09-03T14:06:44.329Z,6.70
2022-09-03T14:09:23.511Z,8.00
2022-09-03T14:11:53.832Z,7.80
2022-09-03T14:14:31.025Z,6.10
2022-09-03T14:17:12.043Z,5.80
2022-09-03T14:20:03.470Z,7.20
2022-09-03T14:22:48.446Z,5.50
2022-09-03T14:25:16.567Z,7.00
2022-09-03T14:27:44.533Z,10.90
2022-09-03T14:31:41.780Z,9.50
2022-09-03T14:34:16.058Z,6.40
2022-09-03T14:36:49.983Z,7.30
2022-09-03T14:39:27.736Z,6.70
2022-09-03T14:42:06.492Z,7.30
2022-09-03T14:44:39.361Z,6.00
2022-09-03T14:47:38.121Z,8.80
2022-09-03T14:50:31.293Z,13.50
2022-09-03T14:53:38.641Z,10.20
2022-09-03T14:56:28.461Z,8.40
2022-09-03T14:59:38.318Z,10.50
2022-09-03T15:02:47.721Z,7.80
2022-09-03T15:05:37.290Z,7.50
2022-09-03T15:08:25.216Z,9.20
2022-09-03T15:11:04.010Z,12.00
2022-09-03T15:13:40.501Z,11.70
2022-09-03T15:16:31.129Z,11.60
2022-09-03T15:22:33.933Z,19.80
2022-09-03T15:25:23.032Z,11.60
2022-09-03T15:28:34.370Z,15.00
2022-09-03T15:31:36.995Z,13.30
2022-09-03T15:34:40.512Z,10.80
2022-09-03T15:37:25.679Z,13.00
2022-09-03T15:40:45.838Z,15.30
2022-09-03T15:43:22.589Z,9.00
2022-09-03T15:45:52.223Z,10.90
2022-09-03T15:48:44.690Z,8.40
2022-09-03T15:51:37.700Z,7.80
2022-09-03T15:54:25.270Z,11.00
2022-09-03T15:57:11.074Z,10.90
2022-09-03T15:59:56.268Z,13.10
2022-09-03T16:02:52.405Z,11.70
2022-09-03T16:05:55.411Z,12.50
2022-09-03T16:08:32.589Z,8.60
2022-09-03T16:11:06.599Z,10.20
2022-09-03T16:13:44.884Z,16.10
2022-09-03T16:16:15.009Z,12.20
2022-09-03T16:19:13.893Z,8.30
2022-09-03T16:21:48.988Z,11.20
2022-09-03T16:24:25.163Z,13.90
2022-09-03T16:27:25.010Z,10.70
2022-09-03T16:30:10.128Z,14.10
2022-09-03T16:32:52.146Z,18.30
2022-09-03T16:35:30.895Z,14.40
2022-09-03T16:38:10.752Z,13.70
2022-09-03T16:41:02.409Z,35.20
2022-09-03T16:43:44.667Z,21.00
2022-09-03T16:46:17.639Z,25.90
2022-09-03T16:48:57.700Z,96.10
2022-09-03T16:51:39.237Z,60.00
2022-09-03T16:54:55.817Z,94.90
2022-09-03T16:57:24.488Z,54.10
2022-09-03T17:00:06.881Z,55.80
2022-09-03T17:02:41.573Z,70.50
2022-09-03T17:05:24.120Z,89.70
2022-09-03T17:08:14.753Z,97.80
2022-09-03T17:10:44.501Z,96.40
2022-09-03T17:13:30.036Z,144.80
2022-09-03T17:16:35.572Z,118.80
2022-09-03T17:19:23.588Z,121.20
2022-09-03T17:22:04.955Z,104.20
2022-09-03T17:24:51.733Z,111.10
2022-09-03T17:27:39.710Z,95.20
2022-09-03T17:31:00.383Z,95.30
2022-09-03T17:33:45.830Z,77.50
2022-09-03T17:36:14.173Z,66.60
2022-09-03T17:38:53.364Z,57.50
2022-09-03T17:41:40.729Z,40.40
2022-09-03T17:44:11.265Z,55.40
2022-09-03T17:47:15.274Z,40.00
2022-09-03T17:49:52.209Z,37.50
2022-09-03T17:52:44.771Z,41.60
2022-09-03T17:55:22.090Z,39.00
2022-09-03T17:57:52.528Z,34.30
2022-09-03T18:00:29.770Z,38.00
2022-09-03T18:03:28.606Z,37.60
2022-09-03T18:06:01.163Z,41.30
2022-09-03T18:08:34.215Z,35.00
2022-09-03T18:11:10.762Z,35.80
2022-09-03T18:13:47.697Z,35.80
2022-09-03T18:16:19.290Z,54.00
2022-09-03T18:18:48.134Z,42.70
2022-09-03T18:21:38.571Z,34.20
2022-09-03T18:24:50.911Z,37.40
2022-09-03T18:27:57.957Z,32.50
2022-09-03T18:30:43.673Z,36.90
2022-09-03T18:33:31.985Z,26.70
2022-09-03T18:36:17.617Z,35.10
2022-09-03T18:39:02.969Z,25.00
2022-09-03T18:42:03.727Z,28.00
2022-09-03T18:45:20.724Z,18.70
2022-09-03T18:48:44.964Z,25.40
2022-09-03T18:51:32.072Z,23.00
2022-09-03T18:55:07.496Z,18.40
2022-09-03T18:58:04.076Z,20.40
2022-09-03T19:00:49.606Z,28.10
2022-09-03T19:03:38.975Z,22.90
2022-09-03T19:06:50.581Z,25.50
2022-09-03T19:09:48.639Z,28.40
2022-09-03T19:13:01.513Z,25.30
2022-09-03T19:15:53.394Z,18.00
2022-09-03T19:18:50.587Z,21.60
2022-09-03T19:21:46.884Z,30.80
2022-09-03T19:24:32.550Z,29.50
2022-09-03T19:27:54.306Z,25.10
2022-09-03T19:33:29.500Z,27.60
2022-09-03T19:36:27.402Z,28.10
2022-09-03T19:39:27.872Z,29.40
2022-09-03T19:42:28.501Z,28.50
2022-09-03T19:45:22.081Z,26.50
2022-09-03T19:48:20.732Z,32.50
2022-09-03T19:51:16.595Z,23.20
2022-09-03T19:54:02.016Z,17.60
2022-09-03T19:56:47.588Z,20.80
2022-09-03T19:59:39.654Z,17.70
2022-09-03T20:02:25.091Z,18.50
2022-09-03T20:05:17.531Z,21.80
2022-09-03T20:08:03.889Z,19.30
2022-09-03T20:10:30.559Z,20.70
2022-09-03T20:15:59.820Z,18.40
2022-09-03T20:18:32.648Z,23.20
2022-09-03T20:21:18.239Z,17.10
2022-09-03T20:24:06.812Z,14.50
2022-09-03T20:27:15.362Z,15.70
2022-09-03T20:30:05.037Z,13.40
2022-09-03T20:32:40.584Z,14.00
2022-09-03T20:35:14.097Z,19.90
2022-09-03T20:38:05.100Z,16.60
2022-09-03T20:40:34.777Z,13.20
2022-09-03T20:43:07.576Z,17.20
2022-09-03T20:45:50.742Z,19.30
2022-09-03T20:48:26.548Z,13.80
2022-09-03T20:51:03.497Z,17.40
2022-09-03T20:53:33.896Z,15.40
2022-09-03T20:56:13.552Z,23.40
2022-09-03T20:59:05.247Z,19.70
2022-09-03T21:01:58.375Z,21.20
2022-09-03T21:04:40.363Z,18.60
2022-09-03T21:07:29.254Z,17.50
2022-09-03T21:10:16.964Z,18.00
2022-09-03T21:13:04.782Z,20.40
2022-09-03T21:15:37.597Z,17.80
2022-09-03T21:18:23.546Z,15.40
2022-09-03T21:21:09.605Z,17.60
2022-09-03T21:23:44.142Z,15.50
2022-09-03T21:26:21.366Z,14.60
2022-09-03T21:29:08.878Z,17.40
2022-09-03T21:32:07.028Z,13.80
2022-09-03T21:35:09.243Z,16.70
2022-09-03T21:37:39.879Z,14.80
2022-09-03T21:40:08.100Z,15.70
2022-09-03T21:42:46.280Z,15.20
2022-09-03T21:45:18.722Z,16.00
2022-09-03T21:47:48.840Z,19.40
2022-09-03T21:50:22.245Z,16.60
2022-09-03T21:53:04.069Z,13.80
2022-09-03T21:55:36.755Z,11.90
2022-09-03T21:58:19.886Z,12.60
2022-09-03T22:00:46.742Z,13.10
2022-09-03T22:03:14.083Z,14.10
2022-09-03T22:05:54.240Z,14.30
2022-09-03T22:08:30.444Z,14.30
2022-09-03T22:11:06.248Z,11.80
2022-09-03T22:13:38.082Z,18.30
2022-09-03T22:16:25.244Z,15.70
2022-09-03T22:18:52.302Z,14.40
2022-09-03T22:21:32.703Z,14.40
2022-09-03T22:24:07.433Z,14.20
2022-09-03T22:26:45.302Z,15.30
2022-09-03T22:29:15.435Z,13.00
2022-09-03T22:32:09.630Z,12.40
2022-09-03T22:35:04.982Z,12.10
2022-09-03T22:37:37.824Z,15.00
2022-09-03T22:40:18.316Z,15.90
2022-09-03T22:42:51.392Z,13.50
2022-09-03T22:45:44.817Z,12.40
2022-09-03T22:48:37.915Z,11.60
2022-09-03T22:51:04.771Z,11.60
2022-09-03T22:54:08.767Z,11.30
2022-09-03T22:56:37.280Z,11.60
2022-09-03T22:59:23.348Z,15.80
2022-09-03T23:02:16.028Z,12.40
2022-09-03T23:04:51.073Z,14.70
2022-09-03T23:07:35.306Z,12.00
2022-09-03T23:10:09.081Z,13.90
2022-09-03T23:12:47.128Z,13.20
2022-09-03T23:15:30.278Z,14.30
2022-09-03T23:18:05.810Z,13.20
2022-09-03T23:20:33.220Z,13.40
2022-09-03T23:23:21.573Z,12.60
2022-09-03T23:25:54.654Z,13.80
2022-09-03T23:28:32.639Z,16.00
2022-09-03T23:31:23.604Z,15.30
2022-09-03T23:33:52.278Z,12.80
2022-09-03T23:37:22.375Z,16.10
2022-09-03T23:40:01.674Z,15.70
2022-09-03T23:43:15.950Z,11.80
2022-09-03T23:46:13.454Z,15.20
2022-09-03T23:48:42.986Z,14.00
2022-09-03T23:51:19.306Z,16.40
2022-09-03T23:54:16.729Z,14.00
2022-09-03T23:56:52.482Z,20.40
2022-09-03T23:59:56.426Z,14.40
